• Join FlightAware (Why Join?)
  • Login
  • US Flag 
 
06:04PM EST


 

Airport Tracker/Info


-or-


 

Live Flight TrackerFlight Track Log ✈ N792XJ ✈ 29-Apr-2013 ✈ KASE - KPSP

Flight Track Log - Related Links

Times and Time Zones

All times are in EDT time to prevent confusion due to time zone crossing. See the N792XJ flight status page for this flight to view local times or setup timezone preferences in your user account.

Time Position Orientation Groundspeed Altitude Reporting Facility
EDT Latitude Longitude Course Direction KTS MPH feet Rate Location/Type
07:57PM 39.2622 -106.8747 252° West 201 231 43,000  Level Denver Center
07:58PM 39.2917 -106.9325 303° West 245 282 11,500 -12,600 Descending Denver Center
07:59PM 39.3072 -107.0494 280° West 278 320 14,500 2,580 Climbing Denver Center
08:00PM 39.3683 -107.1619 305° West 335 386 17,400 2,520 Climbing Denver Center
08:01PM 39.3519 -107.2722 259° West 337 388 19,800 2,340 Climbing Denver Center
08:02PM 39.3269 -107.4131 257° West 358 412 22,200 2,220 Climbing Denver Center
08:03PM 39.2695 -107.7055 252° West  Level FlightAware Approximate
08:04PM 39.3033 -107.5344 256° West 364 419 24,400  Level Denver Center
08:05PM 39.2750 -107.6844 256° West 380 437 26,600 1,920 Climbing Denver Center
08:06PM 39.2483 -107.8219 256° West 407 468 28,400 1,860 Climbing Denver Center
08:07PM 39.2178 -107.9861 257° West 422 486 30,500 1,740 Climbing Denver Center
08:08PM 39.1892 -108.1308 256° West 433 498 32,000 1,200 Climbing Denver Center
08:09PM 39.1603 -108.2856 257° West 462 532 33,000 1,260 Climbing Denver Center
08:10PM 39.1233 -108.4694 256° West 474 545 34,700 1,380 Climbing Denver Center
08:11PM 39.0917 -108.6286 256° West 477 549 36,200 1,800 Climbing Denver Center
08:12PM 39.0528 -108.8350 256° West 460 529 38,900 2,040 Climbing Denver Center
08:13PM 38.9992 -108.9775 244° Southwest 464 534 40,500 1,560 Climbing Denver Center
08:14PM 38.9258 -109.1353 239° Southwest 458 527 42,100 1,200 Climbing Denver Center
08:15PM 38.8631 -109.2703 239° Southwest 461 531 43,000 600 Climbing Denver Center
08:16PM 38.7892 -109.4311 240° Southwest 471 542 43,400 480 Climbing Denver Center
08:17PM 38.7236 -109.5661 238° Southwest 466 536 44,000 420 Climbing Denver Center
08:18PM 38.6567 -109.7011 238° Southwest 467 537 44,300 420 Climbing Denver Center
08:19PM 38.5803 -109.8653 239° Southwest 478 550 44,900 300 Climbing Denver Center
08:20PM 38.5117 -110.0036 238° Southwest 480 552 45,000  Climbing Denver Center
08:21PM 38.4331 -110.1686 239° Southwest 485 558 45,000  Level Denver Center
08:22PM 38.4003 -110.2406 240° Southwest 486 559 45,000  Level Salt Lake Center
08:22PM 38.3658 -110.3111 238° Southwest 489 563 45,000  Level Denver Center
08:23PM 38.2856 -110.4736 238° Southwest 486 559 45,000  Level Denver Center
08:24PM 38.2169 -110.6150 238° Southwest 489 563 45,000  Level Denver Center
08:25PM 38.1844 -110.6858 240° Southwest 488 562 45,000  Level Salt Lake Center
08:26PM 38.1158 -110.8250 238° Southwest 486 559 45,000  Level Salt Lake Center
08:27PM 38.0353 -110.9869 238° Southwest 485 558 45,000  Level Salt Lake Center
08:27PM 37.9917 -111.0733 237° Southwest 486 559 45,000  Level Denver Center
08:28PM 37.9633 -111.1319 238° Southwest 486 559 45,000  Level Salt Lake Center
08:29PM 37.8914 -111.2767 238° Southwest 486 559 45,000  Level Salt Lake Center
08:29PM 37.8461 -111.3625 236° Southwest 487 560 45,000  Level Denver Center
08:30PM 37.8183 -111.4214 239° Southwest 487 560 45,000  Level Salt Lake Center
08:31PM 37.7453 -111.5658 237° Southwest 488 562 45,000  Level Salt Lake Center
08:32PM 37.6706 -111.7111 237° Southwest 492 566 45,000  Level Salt Lake Center
08:33PM 37.6122 -111.8258 237° Southwest 487 560 45,000  Level Denver Center
08:34PM 37.5383 -111.9706 237° Southwest 490 564 45,000  Level Denver Center
08:34PM 37.4928 -112.0575 237° Southwest 490 564 45,000  Level Los Angeles Center
08:35PM 37.4358 -112.1697 237° Southwest 484 557 45,000  Level Salt Lake Center
08:36PM 37.3642 -112.3103 237° Southwest 478 550 45,000  Level Salt Lake Center
08:36PM 37.3497 -112.3378 237° Southwest 473 544 45,000  Level Los Angeles Center
08:37PM 37.2917 -112.4497 237° Southwest 475 547 45,000  Level Salt Lake Center
08:37PM 37.2778 -112.4781 238° Southwest 473 544 45,000  Level Los Angeles Center
08:38PM 37.2036 -112.6186 237° Southwest 478 550 45,000  Level Los Angeles Center
08:39PM 37.1458 -112.7311 237° Southwest 477 549 45,000  Level Salt Lake Center
08:40PM 37.0725 -112.8700 237° Southwest 476 548 45,000  Level Salt Lake Center
08:40PM 37.0583 -112.8975 237° Southwest 476 548 45,000  Level Los Angeles Center
08:41PM 36.9719 -113.0622 237° Southwest 472 543 45,000  Level Los Angeles Center
08:43PM 36.8978 -113.1986 236° Southwest 474 545 45,000  Level Los Angeles Center
08:44PM 36.8250 -113.3369 237° Southwest 476 548 45,000  Level Los Angeles Center
08:45PM 36.7494 -113.4736 235° Southwest 478 550 45,000  Level Los Angeles Center
08:46PM 36.6419 -113.5750 217° Southwest 485 558 45,000  Level Los Angeles Center
08:47PM 36.5322 -113.6697 215° Southwest 482 555 45,000  Level Los Angeles Center
08:48PM 36.4206 -113.7669 215° Southwest 482 555 45,000  Level Los Angeles Center
08:49PM 36.3117 -113.8617 215° Southwest 478 550 45,000  Level Los Angeles Center
08:50PM 36.1803 -113.9744 215° Southwest 477 549 45,000  Level Los Angeles Center
08:51PM 36.0714 -114.0683 215° Southwest 475 547 45,000  Level Los Angeles Center
08:52PM 35.9628 -114.1625 215° Southwest 476 548 45,000  Level Los Angeles Center
08:53PM 35.8528 -114.2567 215° Southwest 478 550 45,000  Level Los Angeles Center
08:54PM 35.7411 -114.3514 215° Southwest 484 557 45,000  Level Los Angeles Center
08:55PM 35.6308 -114.4456 215° Southwest 482 555 45,000  Level Los Angeles Center
08:56PM 35.5214 -114.5383 215° Southwest 478 550 45,000 -900 Level Los Angeles Center
08:57PM 35.4219 -114.6214 214° Southwest 450 518 43,200 -1,680 Descending Los Angeles Center
08:58PM 35.3058 -114.7181 214° Southwest 431 496 41,600 -1,320 Descending Los Angeles Center
08:59PM 35.1897 -114.8175 215° Southwest 472 543 40,500 -1,080 Descending Los Angeles Center
09:00PM 35.0717 -114.9150 214° Southwest 509 586 39,500 -1,020 Descending Los Angeles Center
09:01PM 34.9564 -115.0117 215° Southwest 505 581 38,500 -1,020 Descending Los Angeles Center
09:02PM 34.8417 -115.1042 214° Southwest 497 572 37,500 -960 Descending Los Angeles Center
09:03PM 34.7278 -115.1994 215° Southwest 495 570 36,600 -2,280 Descending Los Angeles Center
09:04PM 34.6033 -115.3011 214° Southwest 478 550 32,800 -3,480 Descending Los Angeles Center
09:05PM 34.4975 -115.3864 214° Southwest 463 533 29,500 -3,180 Descending Los Angeles Center
09:06PM 34.3958 -115.4717 215° Southwest 451 519 26,300 -2,700 Descending Los Angeles Center
09:07PM 34.2992 -115.5567 216° Southwest 433 498 24,000 -1,140 Descending Los Angeles Center
09:08PM 34.2203 -115.6483 224° Southwest 402 463 24,000 -1,140 Level Los Angeles Center
09:09PM 34.1511 -115.7275 223° Southwest 357 411 21,700 -3,120 Descending Los Angeles Center
09:10PM 34.0719 -115.8031 218° Southwest 364 419 17,600 -3,960 Descending Los Angeles Center
09:11PM 33.9686 -115.8847 213° Southwest 370 426 13,700 -3,360 Descending Los Angeles Center
09:12PM 33.9014 -115.9697 226° Southwest 361 415 10,800 -2,040 Descending Los Angeles Center
09:13PM 33.8494 -116.0544 234° Southwest 335 386 9,500 -1,500 Descending Los Angeles Center
09:14PM 33.8022 -116.1328 234° Southwest 312 359 7,800 -1,680 Descending Los Angeles Center
09:15PM 33.7597 -116.2064 235° Southwest 290 334 6,100 -1,200 Descending Los Angeles Center
09:16PM 33.7217 -116.2747 236° Southwest 283 326 5,400 -1,020 Descending Los Angeles Center
09:18PM 33.7667 -116.4000 293° West 192 221 3,500 -1,440 Descending Southern California TRACON
09:19PM 33.7833 -116.4500 292° West 158 182 1,700 -1,380 Descending Southern California TRACON
09:20PM 33.8167 -116.4833 320° Northwest 122 140 800 -900 Descending Southern California TRACON
09:22PM 33.8167 -116.5000 297° West  Level FlightAware Approximate
09:29PM 33.8297 -116.5067 297° West  Level Estimated
09:30PM 33.8297 -116.5067 297° West  Level Estimated